Amboy, Illinois
Current Conditions -  °F | °C
As of 4:15 AM on Thursday 29 Jan 2015 (Local Time) from KRPJ Reporting Station
Scattered Clouds Scattered Clouds  
Wind Chill: 27°   Ceiling: Unl
Heat Index: 27°   Visibility: 7mi
Dew Point: 26°   Wind: 0mph
Humidity: 94%   Direction: NA
Pressure: 29.69"   Gusts: NA
Location:  41.71°N, 89.33°W
Report Text: KRPJ 291015Z AUTO 00000KT 7SM SCT033 M03/M03 A2969 RMK AO2 T10261035
Loading
Personal Weather Stations






























Interactive Weather Map New forecast layout! Learn more

10-Day Weather Forecast

Advertisements
Track Severe Weather on mobile